Time;durP1;ratioP1;P1;durP2;ratioP2;P2;SDS_P1;SDS_P2;PMS_P1;PMS_P2;Temp;Humidity;BMP_temperature;BMP_pressure;BME280_temperature;BME280_humidity;BME280_pressure;Samples;Min_cycle;Max_cycle;Signal;HPM_P1;HPM_P2
2021/05/12 00:05:03;;;;;;;2.08;1.30;;;9.80;99.90;;;;;;20989898;28;20374;-76
2021/05/12 00:15:06;;;;;;;0.40;0.40;;;9.80;99.90;;;;;;20991040;28;20040;-77
2021/05/12 00:25:10;;;;;;;0.57;0.30;;;9.60;99.90;;;;;;20989034;28;20037;-76
2021/05/12 00:35:12;;;;;;;1.00;0.40;;;9.40;99.90;;;;;;20990232;28;20123;-75
2021/05/12 00:45:17;;;;;;;0.35;0.25;;;9.30;99.90;;;;;;20989590;28;20059;-75
2021/05/12 00:55:19;;;;;;;0.40;0.40;;;9.20;99.90;;;;;;20989517;28;20525;-75
2021/05/12 01:05:48;;;;;;;0.75;0.50;;;9.00;99.90;;;;;;20988842;28;20060;-75
2021/05/12 01:15:49;;;;;;;1.52;0.90;;;9.00;99.90;;;;;;20992192;28;20032;-75
2021/05/12 01:25:52;;;;;;;0.77;0.60;;;8.80;99.90;;;;;;21003520;28;20398;-76
2021/05/12 01:35:54;;;;;;;4.88;1.20;;;8.70;99.90;;;;;;21002871;28;20732;-75
2021/05/12 01:45:54;;;;;;;3.35;0.73;;;8.60;99.90;;;;;;21002439;28;20052;-75
2021/05/12 01:55:56;;;;;;;2.70;0.87;;;8.50;99.90;;;;;;21001306;28;20024;-75
2021/05/12 02:05:57;;;;;;;1.87;0.93;;;8.50;99.90;;;;;;21000814;28;20115;-75
2021/05/12 02:16:03;;;;;;;1.13;0.93;;;8.40;99.90;;;;;;20998229;28;20465;-75
2021/05/12 02:26:04;;;;;;;3.63;1.13;;;8.40;99.90;;;;;;20997797;28;20040;-75
2021/05/12 02:36:05;;;;;;;2.50;1.10;;;8.40;99.90;;;;;;20998363;28;20033;-75
2021/05/12 02:46:06;;;;;;;4.67;1.10;;;8.40;99.90;;;;;;20996040;28;20127;-75
2021/05/12 02:56:07;;;;;;;3.93;1.40;;;8.40;99.90;;;;;;20997067;28;20056;-75
2021/05/12 03:06:10;;;;;;;3.77;1.50;;;8.40;99.90;;;;;;20995776;28;20036;-75
2021/05/12 03:16:10;;;;;;;5.85;1.85;;;8.40;99.90;;;;;;20993916;28;20068;-75
2021/05/12 03:26:11;;;;;;;2.90;1.63;;;8.40;99.90;;;;;;21006001;22;20036;-78
2021/05/12 03:36:12;;;;;;;5.03;1.40;;;8.40;99.90;;;;;;20811475;28;20029;-78
2021/05/12 03:46:13;;;;;;;2.47;1.50;;;8.40;99.90;;;;;;20829524;28;20056;-78
2021/05/12 03:56:14;;;;;;;3.90;1.40;;;8.40;99.90;;;;;;20839115;28;20095;-78
2021/05/12 04:06:15;;;;;;;8.07;1.20;;;8.40;99.90;;;;;;20827785;28;20053;-78
2021/05/12 04:16:16;;;;;;;3.77;0.93;;;8.50;99.90;;;;;;20792752;28;20117;-76
2021/05/12 04:26:16;;;;;;;2.40;1.43;;;8.60;99.90;;;;;;20825437;28;20113;-76
2021/05/12 04:36:17;;;;;;;4.10;1.87;;;8.60;99.90;;;;;;20825462;28;20029;-76
2021/05/12 04:46:18;;;;;;;4.27;2.10;;;8.60;99.90;;;;;;20825174;28;20060;-76
2021/05/12 04:56:19;;;;;;;4.13;1.83;;;8.60;99.90;;;;;;20808902;28;20496;-76
2021/05/12 05:06:20;;;;;;;2.33;1.80;;;8.70;99.90;;;;;;20820833;28;20514;-75
2021/05/12 05:16:21;;;;;;;3.57;1.90;;;8.60;99.90;;;;;;20821261;28;20022;-77
2021/05/12 05:26:22;;;;;;;5.53;1.97;;;8.60;99.90;;;;;;20829466;28;20045;-76
2021/05/12 05:36:23;;;;;;;;;;;8.70;99.90;;;;;;20838733;28;20045;-79
2021/05/12 05:46:42;;;;;;;7.85;2.03;;;8.70;99.90;;;;;;20846790;28;19913;-79
2021/05/12 05:57:06;;;;;;;9.93;2.65;;;8.90;99.90;;;;;;20838179;28;20068;-79
2021/05/12 06:07:25;;;;;;;8.27;2.45;;;9.10;99.90;;;;;;20837790;28;20132;-79
2021/05/12 06:17:45;;;;;;;5.72;2.35;;;9.10;99.90;;;;;;20842721;28;20571;-77
2021/05/12 06:28:04;;;;;;;5.80;2.28;;;9.30;99.90;;;;;;20821669;28;20049;-78
2021/05/12 06:38:23;;;;;;;5.43;2.42;;;9.30;99.90;;;;;;20834696;28;20403;-76
2021/05/12 06:48:30;;;;;;;3.63;2.38;;;9.40;99.90;;;;;;20836807;28;20052;-78
2021/05/12 06:58:34;;;;;;;8.50;4.43;;;9.40;99.90;;;;;;20836063;28;20108;-79
2021/05/12 07:08:37;;;;;;;8.73;2.10;;;9.70;99.90;;;;;;20814920;28;20550;-78
2021/05/12 07:18:38;;;;;;;6.38;2.35;;;9.90;99.90;;;;;;20812356;28;20167;-78
2021/05/12 07:28:39;;;;;;;8.47;2.47;;;10.00;99.90;;;;;;20816901;28;20495;-79
2021/05/12 07:38:40;;;;;;;8.33;2.27;;;10.10;99.90;;;;;;20830531;28;20042;-78
2021/05/12 07:48:41;;;;;;;4.20;1.77;;;10.60;99.90;;;;;;20841742;28;20034;-77
2021/05/12 07:58:42;;;;;;;8.57;1.90;;;11.10;99.90;;;;;;20810670;28;20503;-79
2021/05/12 08:08:43;;;;;;;6.23;2.10;;;11.50;99.90;;;;;;20810160;28;20408;-78
2021/05/12 08:18:44;;;;;;;6.50;1.53;;;11.40;99.90;;;;;;20826216;28;20065;-78
2021/05/12 08:28:45;;;;;;;5.37;1.50;;;11.90;99.90;;;;;;20809252;28;20542;-78
2021/05/12 08:38:46;;;;;;;9.73;1.47;;;12.00;99.90;;;;;;20832068;28;20104;-78
2021/05/12 08:48:48;;;;;;;7.53;1.63;;;12.50;99.90;;;;;;20828382;28;20041;-78
2021/05/12 08:58:49;;;;;;;;;;;12.60;99.90;;;;;;20793805;28;20167;-78
2021/05/12 09:08:51;;;;;;;6.15;1.73;;;12.90;99.90;;;;;;20819685;28;20283;-79
2021/05/12 09:19:04;;;;;;;4.15;1.30;;;13.00;99.90;;;;;;20828184;28;20037;-77
2021/05/12 09:29:05;;;;;;;5.88;1.73;;;14.40;99.90;;;;;;20825386;28;20067;-77
2021/05/12 09:39:13;;;;;;;4.35;1.33;;;14.80;99.90;;;;;;20815463;28;20365;-78
2021/05/12 09:49:14;;;;;;;4.20;1.10;;;15.70;99.90;;;;;;20842817;28;20084;-78
2021/05/12 09:59:15;;;;;;;;;;;15.30;99.90;;;;;;20843458;28;20033;-79
2021/05/12 10:09:18;;;;;;;3.50;1.23;;;15.40;99.90;;;;;;20839686;28;19909;-78
2021/05/12 10:19:19;;;;;;;8.32;1.23;;;15.80;99.90;;;;;;20817510;28;20431;-79
2021/05/12 10:29:21;;;;;;;7.03;1.10;;;15.60;99.90;;;;;;20834336;28;20080;-78
2021/05/12 10:39:22;;;;;;;3.92;1.08;;;16.60;99.90;;;;;;20833499;28;20030;-77
2021/05/12 10:49:25;;;;;;;2.83;0.80;;;15.60;99.90;;;;;;20862633;28;20032;-80
2021/05/12 10:59:26;;;;;;;10.32;4.22;;;16.50;99.90;;;;;;20883712;28;20034;-80
2021/05/12 11:09:40;;;;;;;4.68;0.90;;;16.90;99.90;;;;;;20881714;28;20472;-80
2021/05/12 11:19:59;;;;;;;4.15;0.65;;;18.20;99.90;;;;;;20881993;28;20072;-80
2021/05/12 11:40:07;;;;;;;7.35;0.80;;;17.20;99.90;;;;;;20876044;28;20037;-80
2021/05/12 11:50:23;;;;;;;4.80;0.83;;;17.10;99.90;;;;;;20870042;28;20568;-80
2021/05/12 12:00:32;;;;;;;4.50;0.98;;;17.70;99.90;;;;;;20841364;28;20033;-79
2021/05/12 12:10:33;;;;;;;3.38;0.90;;;17.50;99.90;;;;;;20866319;28;20083;-79
2021/05/12 12:20:35;;;;;;;3.90;0.80;;;16.40;99.90;;;;;;20848048;28;20113;-80
2021/05/12 12:30:38;;;;;;;2.83;0.80;;;17.10;99.90;;;;;;20874653;28;20033;-79
2021/05/12 12:40:45;;;;;;;6.75;0.98;;;17.20;99.90;;;;;;20883560;28;20092;-79
2021/05/12 12:50:47;;;;;;;4.32;0.90;;;18.00;99.90;;;;;;20856301;28;20483;-79
2021/05/12 13:00:48;;;;;;;2.45;1.10;;;18.50;99.90;;;;;;20856677;28;20412;-80
2021/05/12 13:11:10;;;;;;;2.70;0.70;;;18.70;99.90;;;;;;20872422;28;20034;-79
2021/05/12 13:21:16;;;;;;;3.47;0.97;;;18.10;99.90;;;;;;20873424;28;20033;-80
2021/05/12 13:31:17;;;;;;;4.65;0.93;;;18.20;99.90;;;;;;20888012;28;20106;-80
2021/05/12 13:41:18;;;;;;;6.33;1.13;;;18.00;99.90;;;;;;20891152;28;20052;-79
2021/05/12 13:51:21;;;;;;;3.10;1.00;;;18.30;99.90;;;;;;20872306;28;20033;-80
2021/05/12 14:11:35;;;;;;;3.35;0.93;;;17.10;99.90;;;;;;20888227;28;20026;-79
2021/05/12 14:21:36;;;;;;;2.93;0.70;;;17.10;99.90;;;;;;20875747;28;20059;-79
2021/05/12 14:31:37;;;;;;;4.23;1.07;;;17.10;99.90;;;;;;20886411;28;20029;-80
2021/05/12 14:41:38;;;;;;;2.53;0.90;;;17.30;99.90;;;;;;20887426;28;20032;-80
2021/05/12 14:51:41;;;;;;;3.23;1.40;;;17.20;99.90;;;;;;20879244;28;20087;-78
2021/05/12 15:11:51;;;;;;;5.63;1.27;;;15.60;99.90;;;;;;20814927;28;20037;-77
2021/05/12 15:21:52;;;;;;;6.72;1.30;;;15.70;99.90;;;;;;20813618;28;20396;-78
2021/05/12 15:31:53;;;;;;;6.03;1.47;;;15.50;99.90;;;;;;20811218;28;20057;-77
2021/05/12 15:41:54;;;;;;;1.85;1.20;;;15.10;99.90;;;;;;20819544;28;20036;-78
2021/05/12 15:51:55;;;;;;;5.05;1.40;;;14.60;99.90;;;;;;20831034;28;20032;-76
2021/05/12 16:01:56;;;;;;;7.55;1.30;;;14.40;99.90;;;;;;20847377;28;20030;-78
2021/05/12 16:11:57;;;;;;;4.07;1.60;;;14.20;99.90;;;;;;20853364;28;20025;-77
2021/05/12 16:21:59;;;;;;;4.35;1.90;;;14.10;99.90;;;;;;20838882;28;20052;-77
2021/05/12 16:31:59;;;;;;;5.25;1.85;;;13.90;99.90;;;;;;20849674;28;20515;-78
2021/05/12 16:42:01;;;;;;;5.63;1.85;;;13.90;99.90;;;;;;20853697;28;20095;-76
2021/05/12 16:52:03;;;;;;;2.67;1.37;;;13.90;99.90;;;;;;20859516;28;20048;-78
2021/05/12 17:02:04;;;;;;;5.85;1.30;;;13.70;99.90;;;;;;20843303;28;20034;-78
2021/05/12 17:12:08;;;;;;;5.85;1.30;;;13.70;99.90;;;;;;20862582;28;20404;-77
2021/05/12 17:22:09;;;;;;;6.80;1.20;;;13.60;99.90;;;;;;20833591;28;20037;-77
2021/05/12 17:32:11;;;;;;;4.40;1.50;;;13.70;99.90;;;;;;20867822;28;20109;-78
2021/05/12 17:42:12;;;;;;;3.38;1.50;;;13.80;99.90;;;;;;20856048;28;20120;-77
2021/05/12 17:52:15;;;;;;;4.10;1.80;;;13.50;99.90;;;;;;20855592;28;20033;-76
2021/05/12 18:02:16;;;;;;;5.78;1.50;;;13.30;99.90;;;;;;20839307;28;20034;-76
2021/05/12 18:12:29;;;;;;;5.78;1.83;;;13.20;99.90;;;;;;20819907;28;20091;-77
2021/05/12 18:22:31;;;;;;;4.68;1.70;;;13.10;99.90;;;;;;20848071;28;20363;-77
2021/05/12 18:32:33;;;;;;;7.60;2.30;;;12.90;99.90;;;;;;20827061;28;20164;-76
2021/05/12 18:42:37;;;;;;;7.63;1.75;;;12.60;99.90;;;;;;20841721;28;20033;-77
2021/05/12 18:52:38;;;;;;;4.63;2.15;;;12.20;99.90;;;;;;20832996;28;20041;-77
2021/05/12 19:02:46;;;;;;;6.88;2.20;;;11.90;99.90;;;;;;20847611;28;20699;-76
2021/05/12 19:12:51;;;;;;;6.97;2.30;;;11.40;99.90;;;;;;20832890;28;20068;-77
2021/05/12 19:23:04;;;;;;;9.80;3.28;;;11.10;99.90;;;;;;20882499;28;20093;-77
2021/05/12 19:43:24;;;;;;;16.45;5.65;;;10.70;99.90;;;;;;20811001;28;20147;-77
2021/05/12 19:53:27;;;;;;;11.82;4.57;;;10.40;99.90;;;;;;20830895;28;20028;-77
2021/05/12 20:03:33;;;;;;;9.02;3.25;;;9.70;99.90;;;;;;20785345;28;20061;-77
2021/05/12 20:13:33;;;;;;;8.77;2.42;;;9.40;99.90;;;;;;20786743;28;20029;-77
2021/05/12 20:23:35;;;;;;;4.47;2.10;;;9.50;99.90;;;;;;20802507;28;20042;-77
2021/05/12 20:43:56;;;;;;;5.15;2.03;;;9.40;99.90;;;;;;20815792;28;20155;-77
2021/05/12 20:53:57;;;;;;;;;;;9.00;99.90;;;;;;20815413;28;20034;-77
2021/05/12 21:03:57;;;;;;;7.45;2.35;;;9.20;99.90;;;;;;20803738;28;19917;-77
2021/05/12 21:14:00;;;;;;;5.87;2.30;;;9.30;99.90;;;;;;20806542;28;20034;-77
2021/05/12 21:24:01;;;;;;;6.93;2.20;;;9.40;99.90;;;;;;20804999;28;20110;-77
2021/05/12 21:34:02;;;;;;;3.53;2.03;;;9.40;99.90;;;;;;20864053;22;20578;-77
2021/05/12 21:44:04;;;;;;;5.90;2.43;;;9.10;99.90;;;;;;20900215;28;20040;-76
2021/05/12 21:54:05;;;;;;;6.90;2.28;;;8.30;99.90;;;;;;20901858;28;20127;-77
2021/05/12 22:04:07;;;;;;;4.23;2.63;;;8.50;99.90;;;;;;20897983;28;20039;-76
2021/05/12 22:24:35;;;;;;;4.45;2.25;;;8.50;99.90;;;;;;20898002;28;20399;-76
2021/05/12 22:34:36;;;;;;;5.30;3.20;;;8.20;99.90;;;;;;20905380;28;20048;-76
2021/05/12 22:44:37;;;;;;;6.20;2.50;;;8.00;99.90;;;;;;20959132;28;20479;-76
2021/05/12 22:54:42;;;;;;;9.47;3.00;;;7.90;99.90;;;;;;20998476;28;20032;-77
2021/05/12 23:04:46;;;;;;;6.95;3.38;;;7.80;99.90;;;;;;21000155;28;20052;-76
2021/05/12 23:14:46;;;;;;;5.40;3.20;;;7.50;99.90;;;;;;20994934;28;20127;-76
2021/05/12 23:24:49;;;;;;;5.73;3.30;;;7.50;99.90;;;;;;20995393;28;20442;-76
2021/05/12 23:34:50;;;;;;;14.23;3.88;;;7.10;99.90;;;;;;20993512;28;20178;-76
2021/05/12 23:44:51;;;;;;;4.30;3.57;;;7.50;99.90;;;;;;20994185;28;20032;-76
2021/05/12 23:54:52;;;;;;;6.27;3.67;;;6.90;99.90;;;;;;20992872;28;20349;-75
